sensor_id;sensor_type;location;lat;lon;timestamp;P1;durP1;ratioP1;P2;durP2;ratioP2
10450;SDS011;5273;51.290;6.918;2023-03-14T00:00:15;3.20;;;1.40;;
10450;SDS011;5273;51.290;6.918;2023-03-14T00:02:42;4.57;;;1.60;;
10450;SDS011;5273;51.290;6.918;2023-03-14T00:05:09;9.40;;;1.80;;
10450;SDS011;5273;51.290;6.918;2023-03-14T00:07:37;5.10;;;2.17;;
10450;SDS011;5273;51.290;6.918;2023-03-14T00:10:07;4.27;;;1.60;;
10450;SDS011;5273;51.290;6.918;2023-03-14T00:12:37;3.93;;;1.60;;
10450;SDS011;5273;51.290;6.918;2023-03-14T00:15:05;4.20;;;2.23;;
10450;SDS011;5273;51.290;6.918;2023-03-14T00:17:33;3.87;;;1.67;;
10450;SDS011;5273;51.290;6.918;2023-03-14T00:20:00;3.37;;;1.70;;
10450;SDS011;5273;51.290;6.918;2023-03-14T00:22:33;4.93;;;1.60;;
10450;SDS011;5273;51.290;6.918;2023-03-14T00:25:00;3.17;;;1.30;;
10450;SDS011;5273;51.290;6.918;2023-03-14T00:27:29;5.97;;;1.97;;
10450;SDS011;5273;51.290;6.918;2023-03-14T00:29:56;6.13;;;2.23;;
10450;SDS011;5273;51.290;6.918;2023-03-14T00:32:23;5.00;;;2.03;;
10450;SDS011;5273;51.290;6.918;2023-03-14T00:34:50;5.97;;;1.93;;
10450;SDS011;5273;51.290;6.918;2023-03-14T00:37:17;7.00;;;1.70;;
10450;SDS011;5273;51.290;6.918;2023-03-14T00:39:44;6.27;;;2.70;;
10450;SDS011;5273;51.290;6.918;2023-03-14T00:42:11;3.57;;;1.80;;
10450;SDS011;5273;51.290;6.918;2023-03-14T00:44:40;4.40;;;1.50;;
10450;SDS011;5273;51.290;6.918;2023-03-14T00:47:07;5.33;;;1.50;;
10450;SDS011;5273;51.290;6.918;2023-03-14T00:49:34;8.47;;;2.67;;
10450;SDS011;5273;51.290;6.918;2023-03-14T00:52:01;2.67;;;1.17;;
10450;SDS011;5273;51.290;6.918;2023-03-14T00:54:28;6.73;;;1.50;;
10450;SDS011;5273;51.290;6.918;2023-03-14T00:56:55;2.03;;;0.83;;
10450;SDS011;5273;51.290;6.918;2023-03-14T00:59:23;3.03;;;1.20;;
10450;SDS011;5273;51.290;6.918;2023-03-14T01:01:51;3.87;;;1.03;;
10450;SDS011;5273;51.290;6.918;2023-03-14T01:04:18;4.23;;;1.33;;
10450;SDS011;5273;51.290;6.918;2023-03-14T01:06:45;3.80;;;1.33;;
10450;SDS011;5273;51.290;6.918;2023-03-14T01:09:12;6.67;;;1.70;;
10450;SDS011;5273;51.290;6.918;2023-03-14T01:11:42;5.50;;;1.73;;
10450;SDS011;5273;51.290;6.918;2023-03-14T01:14:11;8.60;;;2.23;;
10450;SDS011;5273;51.290;6.918;2023-03-14T01:16:39;9.27;;;1.43;;
10450;SDS011;5273;51.290;6.918;2023-03-14T01:19:08;12.07;;;2.10;;
10450;SDS011;5273;51.290;6.918;2023-03-14T01:21:35;4.23;;;1.40;;
10450;SDS011;5273;51.290;6.918;2023-03-14T01:24:03;8.97;;;1.90;;
10450;SDS011;5273;51.290;6.918;2023-03-14T01:26:31;5.80;;;1.43;;
10450;SDS011;5273;51.290;6.918;2023-03-14T01:29:00;6.80;;;1.47;;
10450;SDS011;5273;51.290;6.918;2023-03-14T01:31:28;5.83;;;1.30;;
10450;SDS011;5273;51.290;6.918;2023-03-14T01:33:55;4.30;;;1.37;;
10450;SDS011;5273;51.290;6.918;2023-03-14T01:36:24;4.70;;;1.43;;
10450;SDS011;5273;51.290;6.918;2023-03-14T01:38:51;5.87;;;1.17;;
10450;SDS011;5273;51.290;6.918;2023-03-14T01:41:19;5.90;;;1.40;;
10450;SDS011;5273;51.290;6.918;2023-03-14T01:43:48;3.60;;;1.40;;
10450;SDS011;5273;51.290;6.918;2023-03-14T01:46:24;2.17;;;1.00;;
10450;SDS011;5273;51.290;6.918;2023-03-14T01:48:59;5.00;;;1.57;;
10450;SDS011;5273;51.290;6.918;2023-03-14T01:51:32;6.63;;;1.50;;
10450;SDS011;5273;51.290;6.918;2023-03-14T01:54:04;3.17;;;1.27;;
10450;SDS011;5273;51.290;6.918;2023-03-14T01:56:36;4.33;;;1.50;;
10450;SDS011;5273;51.290;6.918;2023-03-14T01:59:06;3.33;;;1.33;;
10450;SDS011;5273;51.290;6.918;2023-03-14T02:01:34;3.33;;;1.30;;
10450;SDS011;5273;51.290;6.918;2023-03-14T02:04:02;6.33;;;1.43;;
10450;SDS011;5273;51.290;6.918;2023-03-14T02:06:33;3.83;;;1.40;;
10450;SDS011;5273;51.290;6.918;2023-03-14T02:09:06;6.17;;;1.83;;
10450;SDS011;5273;51.290;6.918;2023-03-14T02:11:34;3.10;;;1.40;;
10450;SDS011;5273;51.290;6.918;2023-03-14T02:14:01;6.37;;;1.63;;
10450;SDS011;5273;51.290;6.918;2023-03-14T02:16:30;3.90;;;1.37;;
10450;SDS011;5273;51.290;6.918;2023-03-14T02:18:57;5.77;;;1.57;;
10450;SDS011;5273;51.290;6.918;2023-03-14T02:21:26;6.60;;;1.70;;
10450;SDS011;5273;51.290;6.918;2023-03-14T02:24:07;3.73;;;1.50;;
10450;SDS011;5273;51.290;6.918;2023-03-14T02:26:42;5.03;;;1.47;;
10450;SDS011;5273;51.290;6.918;2023-03-14T02:29:13;5.43;;;1.60;;
10450;SDS011;5273;51.290;6.918;2023-03-14T02:31:40;8.43;;;1.80;;
10450;SDS011;5273;51.290;6.918;2023-03-14T02:34:07;9.93;;;2.00;;
10450;SDS011;5273;51.290;6.918;2023-03-14T02:36:34;7.07;;;2.33;;
10450;SDS011;5273;51.290;6.918;2023-03-14T02:39:05;3.07;;;1.57;;
10450;SDS011;5273;51.290;6.918;2023-03-14T02:41:36;7.40;;;1.90;;
10450;SDS011;5273;51.290;6.918;2023-03-14T02:44:04;6.67;;;1.80;;
10450;SDS011;5273;51.290;6.918;2023-03-14T02:46:32;4.23;;;1.60;;
10450;SDS011;5273;51.290;6.918;2023-03-14T02:49:02;5.67;;;2.13;;
10450;SDS011;5273;51.290;6.918;2023-03-14T02:51:30;5.03;;;1.50;;
10450;SDS011;5273;51.290;6.918;2023-03-14T02:53:58;4.30;;;1.60;;
10450;SDS011;5273;51.290;6.918;2023-03-14T02:56:26;5.10;;;1.50;;
10450;SDS011;5273;51.290;6.918;2023-03-14T02:58:53;6.70;;;1.70;;
10450;SDS011;5273;51.290;6.918;2023-03-14T03:01:22;5.03;;;1.57;;
10450;SDS011;5273;51.290;6.918;2023-03-14T03:03:51;3.03;;;1.13;;
10450;SDS011;5273;51.290;6.918;2023-03-14T03:06:18;3.07;;;1.07;;
10450;SDS011;5273;51.290;6.918;2023-03-14T03:08:45;6.70;;;1.37;;
10450;SDS011;5273;51.290;6.918;2023-03-14T03:11:13;2.23;;;1.00;;
10450;SDS011;5273;51.290;6.918;2023-03-14T03:13:40;6.33;;;2.60;;
10450;SDS011;5273;51.290;6.918;2023-03-14T03:16:08;4.80;;;1.10;;
10450;SDS011;5273;51.290;6.918;2023-03-14T03:18:35;3.67;;;1.30;;
10450;SDS011;5273;51.290;6.918;2023-03-14T03:21:04;3.90;;;1.53;;
10450;SDS011;5273;51.290;6.918;2023-03-14T03:23:33;6.67;;;1.70;;
10450;SDS011;5273;51.290;6.918;2023-03-14T03:26:01;5.20;;;1.63;;
10450;SDS011;5273;51.290;6.918;2023-03-14T03:28:28;4.13;;;1.47;;
10450;SDS011;5273;51.290;6.918;2023-03-14T03:30:56;5.87;;;1.60;;
10450;SDS011;5273;51.290;6.918;2023-03-14T03:33:23;5.90;;;1.33;;
10450;SDS011;5273;51.290;6.918;2023-03-14T03:35:50;1.80;;;1.10;;
10450;SDS011;5273;51.290;6.918;2023-03-14T03:38:19;6.93;;;1.37;;
10450;SDS011;5273;51.290;6.918;2023-03-14T03:40:46;5.87;;;1.30;;
10450;SDS011;5273;51.290;6.918;2023-03-14T03:43:13;5.90;;;1.30;;
10450;SDS011;5273;51.290;6.918;2023-03-14T03:45:41;2.43;;;1.30;;
10450;SDS011;5273;51.290;6.918;2023-03-14T03:48:08;4.20;;;1.20;;
10450;SDS011;5273;51.290;6.918;2023-03-14T03:50:35;4.73;;;1.50;;
10450;SDS011;5273;51.290;6.918;2023-03-14T03:53:02;6.63;;;1.67;;
10450;SDS011;5273;51.290;6.918;2023-03-14T03:55:31;4.13;;;1.53;;
10450;SDS011;5273;51.290;6.918;2023-03-14T03:57:58;5.67;;;1.50;;
10450;SDS011;5273;51.290;6.918;2023-03-14T04:00:25;7.73;;;1.70;;
10450;SDS011;5273;51.290;6.918;2023-03-14T04:02:52;4.97;;;1.27;;
10450;SDS011;5273;51.290;6.918;2023-03-14T04:05:20;5.33;;;1.87;;
10450;SDS011;5273;51.290;6.918;2023-03-14T04:07:47;4.27;;;1.20;;
10450;SDS011;5273;51.290;6.918;2023-03-14T04:10:14;5.13;;;1.43;;
10450;SDS011;5273;51.290;6.918;2023-03-14T04:12:43;3.63;;;1.60;;
10450;SDS011;5273;51.290;6.918;2023-03-14T04:15:10;7.30;;;1.93;;
10450;SDS011;5273;51.290;6.918;2023-03-14T04:17:37;3.83;;;1.63;;
10450;SDS011;5273;51.290;6.918;2023-03-14T04:20:06;7.37;;;1.80;;
10450;SDS011;5273;51.290;6.918;2023-03-14T04:22:36;6.23;;;1.80;;
10450;SDS011;5273;51.290;6.918;2023-03-14T04:25:03;4.73;;;2.10;;
10450;SDS011;5273;51.290;6.918;2023-03-14T04:27:31;8.67;;;2.50;;
10450;SDS011;5273;51.290;6.918;2023-03-14T04:30:00;8.83;;;2.47;;
10450;SDS011;5273;51.290;6.918;2023-03-14T04:32:28;6.43;;;2.20;;
10450;SDS011;5273;51.290;6.918;2023-03-14T04:34:55;5.27;;;2.27;;
10450;SDS011;5273;51.290;6.918;2023-03-14T04:37:22;11.13;;;2.00;;
10450;SDS011;5273;51.290;6.918;2023-03-14T04:39:49;7.40;;;2.30;;
10450;SDS011;5273;51.290;6.918;2023-03-14T04:42:17;8.23;;;2.77;;
10450;SDS011;5273;51.290;6.918;2023-03-14T04:44:44;11.77;;;2.80;;
10450;SDS011;5273;51.290;6.918;2023-03-14T04:47:13;4.77;;;2.10;;
10450;SDS011;5273;51.290;6.918;2023-03-14T04:49:40;4.53;;;2.53;;
10450;SDS011;5273;51.290;6.918;2023-03-14T04:52:07;5.97;;;3.63;;
10450;SDS011;5273;51.290;6.918;2023-03-14T04:54:35;10.37;;;3.90;;
10450;SDS011;5273;51.290;6.918;2023-03-14T04:57:02;10.07;;;4.10;;
10450;SDS011;5273;51.290;6.918;2023-03-14T04:59:29;8.77;;;3.93;;
10450;SDS011;5273;51.290;6.918;2023-03-14T05:01:56;8.27;;;3.77;;
10450;SDS011;5273;51.290;6.918;2023-03-14T05:04:25;16.53;;;4.30;;
10450;SDS011;5273;51.290;6.918;2023-03-14T05:06:52;8.67;;;3.63;;
10450;SDS011;5273;51.290;6.918;2023-03-14T05:09:19;10.20;;;4.23;;
10450;SDS011;5273;51.290;6.918;2023-03-14T05:11:47;7.53;;;3.73;;
10450;SDS011;5273;51.290;6.918;2023-03-14T05:14:14;6.67;;;3.27;;
10450;SDS011;5273;51.290;6.918;2023-03-14T05:16:41;10.47;;;3.60;;
10450;SDS011;5273;51.290;6.918;2023-03-14T05:19:09;7.83;;;2.93;;
10450;SDS011;5273;51.290;6.918;2023-03-14T05:21:38;8.33;;;2.40;;
10450;SDS011;5273;51.290;6.918;2023-03-14T05:24:05;10.57;;;2.40;;
10450;SDS011;5273;51.290;6.918;2023-03-14T05:26:32;11.10;;;2.43;;
10450;SDS011;5273;51.290;6.918;2023-03-14T05:29:00;6.33;;;2.13;;
10450;SDS011;5273;51.290;6.918;2023-03-14T05:31:27;8.87;;;2.13;;
10450;SDS011;5273;51.290;6.918;2023-03-14T05:33:54;4.23;;;1.50;;
10450;SDS011;5273;51.290;6.918;2023-03-14T05:36:22;1.33;;;1.03;;
10450;SDS011;5273;51.290;6.918;2023-03-14T05:38:50;6.47;;;1.57;;
10450;SDS011;5273;51.290;6.918;2023-03-14T05:41:17;4.57;;;1.70;;
10450;SDS011;5273;51.290;6.918;2023-03-14T05:43:45;5.33;;;1.57;;
10450;SDS011;5273;51.290;6.918;2023-03-14T05:46:12;2.70;;;1.30;;
10450;SDS011;5273;51.290;6.918;2023-03-14T05:48:39;2.53;;;1.00;;
10450;SDS011;5273;51.290;6.918;2023-03-14T05:51:06;2.73;;;1.37;;
10450;SDS011;5273;51.290;6.918;2023-03-14T05:53:34;5.53;;;1.10;;
10450;SDS011;5273;51.290;6.918;2023-03-14T05:56:02;1.90;;;0.57;;
10450;SDS011;5273;51.290;6.918;2023-03-14T05:58:30;2.67;;;1.33;;
10450;SDS011;5273;51.290;6.918;2023-03-14T06:00:57;1.10;;;0.80;;
10450;SDS011;5273;51.290;6.918;2023-03-14T06:03:24;2.17;;;0.70;;
10450;SDS011;5273;51.290;6.918;2023-03-14T06:05:52;1.67;;;0.90;;
10450;SDS011;5273;51.290;6.918;2023-03-14T06:08:19;1.20;;;0.87;;
10450;SDS011;5273;51.290;6.918;2023-03-14T06:11:03;2.03;;;0.70;;
10450;SDS011;5273;51.290;6.918;2023-03-14T06:13:30;1.77;;;0.77;;
10450;SDS011;5273;51.290;6.918;2023-03-14T06:15:58;1.17;;;0.67;;
10450;SDS011;5273;51.290;6.918;2023-03-14T06:18:25;1.47;;;0.63;;
10450;SDS011;5273;51.290;6.918;2023-03-14T06:20:53;0.93;;;0.90;;
10450;SDS011;5273;51.290;6.918;2023-03-14T06:23:20;0.93;;;0.50;;
10450;SDS011;5273;51.290;6.918;2023-03-14T06:25:48;0.70;;;0.70;;
10450;SDS011;5273;51.290;6.918;2023-03-14T06:28:16;2.07;;;0.73;;
10450;SDS011;5273;51.290;6.918;2023-03-14T06:30:43;0.57;;;0.50;;
10450;SDS011;5273;51.290;6.918;2023-03-14T06:33:10;2.83;;;0.53;;
10450;SDS011;5273;51.290;6.918;2023-03-14T06:35:37;0.40;;;0.40;;
10450;SDS011;5273;51.290;6.918;2023-03-14T06:38:04;0.83;;;0.50;;
10450;SDS011;5273;51.290;6.918;2023-03-14T06:40:31;1.70;;;0.50;;
10450;SDS011;5273;51.290;6.918;2023-03-14T06:42:58;1.50;;;0.40;;
10450;SDS011;5273;51.290;6.918;2023-03-14T06:45:27;2.23;;;0.57;;
10450;SDS011;5273;51.290;6.918;2023-03-14T06:47:54;0.60;;;0.50;;
10450;SDS011;5273;51.290;6.918;2023-03-14T06:50:21;0.60;;;0.60;;
10450;SDS011;5273;51.290;6.918;2023-03-14T06:52:48;0.47;;;0.47;;
10450;SDS011;5273;51.290;6.918;2023-03-14T06:55:15;0.40;;;0.40;;
10450;SDS011;5273;51.290;6.918;2023-03-14T06:57:42;0.60;;;0.60;;
10450;SDS011;5273;51.290;6.918;2023-03-14T07:00:10;0.60;;;0.60;;
10450;SDS011;5273;51.290;6.918;2023-03-14T07:02:39;4.13;;;0.67;;
10450;SDS011;5273;51.290;6.918;2023-03-14T07:05:06;1.03;;;0.70;;
10450;SDS011;5273;51.290;6.918;2023-03-14T07:07:35;0.40;;;0.40;;
10450;SDS011;5273;51.290;6.918;2023-03-14T07:10:02;0.90;;;0.47;;
10450;SDS011;5273;51.290;6.918;2023-03-14T07:12:30;0.67;;;0.60;;
10450;SDS011;5273;51.290;6.918;2023-03-14T07:14:57;0.70;;;0.50;;
10450;SDS011;5273;51.290;6.918;2023-03-14T07:17:24;0.97;;;0.70;;
10450;SDS011;5273;51.290;6.918;2023-03-14T07:19:52;0.63;;;0.60;;
10450;SDS011;5273;51.290;6.918;2023-03-14T07:22:19;0.60;;;0.60;;
10450;SDS011;5273;51.290;6.918;2023-03-14T07:24:46;0.57;;;0.43;;
10450;SDS011;5273;51.290;6.918;2023-03-14T07:27:13;0.30;;;0.27;;
10450;SDS011;5273;51.290;6.918;2023-03-14T07:29:41;0.80;;;0.57;;
10450;SDS011;5273;51.290;6.918;2023-03-14T07:32:08;0.60;;;0.60;;
10450;SDS011;5273;51.290;6.918;2023-03-14T07:34:39;0.50;;;0.50;;
10450;SDS011;5273;51.290;6.918;2023-03-14T07:37:08;0.43;;;0.43;;
10450;SDS011;5273;51.290;6.918;2023-03-14T07:39:35;0.70;;;0.53;;
10450;SDS011;5273;51.290;6.918;2023-03-14T07:42:02;1.00;;;0.53;;
10450;SDS011;5273;51.290;6.918;2023-03-14T07:44:29;0.70;;;0.70;;
10450;SDS011;5273;51.290;6.918;2023-03-14T07:46:57;0.47;;;0.47;;
10450;SDS011;5273;51.290;6.918;2023-03-14T07:49:24;3.33;;;0.40;;
10450;SDS011;5273;51.290;6.918;2023-03-14T07:51:51;0.90;;;0.47;;
10450;SDS011;5273;51.290;6.918;2023-03-14T07:54:20;0.60;;;0.50;;
10450;SDS011;5273;51.290;6.918;2023-03-14T07:56:47;0.80;;;0.60;;
10450;SDS011;5273;51.290;6.918;2023-03-14T07:59:14;0.50;;;0.50;;
10450;SDS011;5273;51.290;6.918;2023-03-14T08:01:41;1.13;;;0.53;;
10450;SDS011;5273;51.290;6.918;2023-03-14T08:04:08;0.60;;;0.60;;
10450;SDS011;5273;51.290;6.918;2023-03-14T08:06:35;2.73;;;1.80;;
10450;SDS011;5273;51.290;6.918;2023-03-14T08:09:03;4.27;;;2.30;;
10450;SDS011;5273;51.290;6.918;2023-03-14T08:11:31;6.00;;;3.97;;
10450;SDS011;5273;51.290;6.918;2023-03-14T08:13:58;4.27;;;3.20;;
10450;SDS011;5273;51.290;6.918;2023-03-14T08:16:25;3.53;;;2.47;;
10450;SDS011;5273;51.290;6.918;2023-03-14T08:18:52;3.67;;;2.10;;
10450;SDS011;5273;51.290;6.918;2023-03-14T08:21:19;1.70;;;1.10;;
10450;SDS011;5273;51.290;6.918;2023-03-14T08:23:47;1.50;;;1.17;;
10450;SDS011;5273;51.290;6.918;2023-03-14T08:26:14;0.80;;;0.80;;
10450;SDS011;5273;51.290;6.918;2023-03-14T08:28:42;0.80;;;0.70;;
10450;SDS011;5273;51.290;6.918;2023-03-14T08:31:09;0.67;;;0.67;;
10450;SDS011;5273;51.290;6.918;2023-03-14T08:33:36;2.77;;;0.83;;
10450;SDS011;5273;51.290;6.918;2023-03-14T08:36:03;0.80;;;0.80;;
10450;SDS011;5273;51.290;6.918;2023-03-14T08:38:30;1.27;;;1.00;;
10450;SDS011;5273;51.290;6.918;2023-03-14T08:40:58;1.97;;;0.53;;
10450;SDS011;5273;51.290;6.918;2023-03-14T08:43:26;0.70;;;0.70;;
10450;SDS011;5273;51.290;6.918;2023-03-14T08:45:56;1.13;;;1.00;;
10450;SDS011;5273;51.290;6.918;2023-03-14T08:48:23;1.20;;;1.10;;
10450;SDS011;5273;51.290;6.918;2023-03-14T08:50:51;0.80;;;0.80;;
10450;SDS011;5273;51.290;6.918;2023-03-14T08:53:18;1.30;;;1.20;;
10450;SDS011;5273;51.290;6.918;2023-03-14T08:55:47;1.13;;;0.90;;
10450;SDS011;5273;51.290;6.918;2023-03-14T08:58:14;1.27;;;1.10;;
10450;SDS011;5273;51.290;6.918;2023-03-14T09:00:41;1.30;;;1.13;;
10450;SDS011;5273;51.290;6.918;2023-03-14T09:03:10;1.47;;;0.70;;
10450;SDS011;5273;51.290;6.918;2023-03-14T09:05:36;2.53;;;0.90;;
10450;SDS011;5273;51.290;6.918;2023-03-14T09:08:04;1.50;;;0.90;;
10450;SDS011;5273;51.290;6.918;2023-03-14T09:10:31;0.93;;;0.83;;
10450;SDS011;5273;51.290;6.918;2023-03-14T09:12:58;0.77;;;0.70;;
10450;SDS011;5273;51.290;6.918;2023-03-14T09:15:25;2.83;;;0.83;;
10450;SDS011;5273;51.290;6.918;2023-03-14T09:17:52;0.60;;;0.60;;
10450;SDS011;5273;51.290;6.918;2023-03-14T09:20:21;0.83;;;0.83;;
10450;SDS011;5273;51.290;6.918;2023-03-14T09:22:48;2.70;;;1.57;;
10450;SDS011;5273;51.290;6.918;2023-03-14T09:25:15;1.20;;;1.00;;
10450;SDS011;5273;51.290;6.918;2023-03-14T09:27:42;2.00;;;1.30;;
10450;SDS011;5273;51.290;6.918;2023-03-14T09:30:09;1.23;;;1.13;;
10450;SDS011;5273;51.290;6.918;2023-03-14T09:32:37;1.37;;;0.40;;
10450;SDS011;5273;51.290;6.918;2023-03-14T09:35:04;0.83;;;0.40;;
10450;SDS011;5273;51.290;6.918;2023-03-14T09:37:33;1.23;;;0.50;;
10450;SDS011;5273;51.290;6.918;2023-03-14T09:39:59;1.00;;;0.90;;
10450;SDS011;5273;51.290;6.918;2023-03-14T09:42:32;1.23;;;0.73;;
10450;SDS011;5273;51.290;6.918;2023-03-14T09:45:00;0.70;;;0.70;;
10450;SDS011;5273;51.290;6.918;2023-03-14T09:47:32;0.40;;;0.40;;
10450;SDS011;5273;51.290;6.918;2023-03-14T09:49:59;1.37;;;0.70;;
10450;SDS011;5273;51.290;6.918;2023-03-14T09:52:29;0.43;;;0.40;;
10450;SDS011;5273;51.290;6.918;2023-03-14T09:55:00;0.70;;;0.60;;
10450;SDS011;5273;51.290;6.918;2023-03-14T09:57:29;2.07;;;1.03;;
10450;SDS011;5273;51.290;6.918;2023-03-14T10:00:00;1.97;;;0.93;;
10450;SDS011;5273;51.290;6.918;2023-03-14T10:02:35;1.50;;;1.40;;
10450;SDS011;5273;51.290;6.918;2023-03-14T10:05:04;1.13;;;0.90;;
10450;SDS011;5273;51.290;6.918;2023-03-14T10:07:34;1.00;;;1.00;;
10450;SDS011;5273;51.290;6.918;2023-03-14T10:10:08;1.00;;;1.00;;
10450;SDS011;5273;51.290;6.918;2023-03-14T10:12:37;1.90;;;1.20;;
10450;SDS011;5273;51.290;6.918;2023-03-14T10:15:05;2.50;;;1.03;;
10450;SDS011;5273;51.290;6.918;2023-03-14T10:17:38;1.33;;;1.23;;
10450;SDS011;5273;51.290;6.918;2023-03-14T10:20:07;1.30;;;1.20;;
10450;SDS011;5273;51.290;6.918;2023-03-14T10:22:52;2.23;;;1.80;;
10450;SDS011;5273;51.290;6.918;2023-03-14T10:25:25;3.13;;;2.27;;
10450;SDS011;5273;51.290;6.918;2023-03-14T10:27:53;3.30;;;1.70;;
10450;SDS011;5273;51.290;6.918;2023-03-14T10:30:30;2.90;;;2.03;;
10450;SDS011;5273;51.290;6.918;2023-03-14T10:33:09;2.40;;;2.20;;
10450;SDS011;5273;51.290;6.918;2023-03-14T10:35:37;2.63;;;2.07;;
10450;SDS011;5273;51.290;6.918;2023-03-14T10:38:04;2.90;;;1.83;;
10450;SDS011;5273;51.290;6.918;2023-03-14T10:40:33;2.57;;;2.30;;
10450;SDS011;5273;51.290;6.918;2023-03-14T10:43:04;10.17;;;4.90;;
10450;SDS011;5273;51.290;6.918;2023-03-14T10:45:34;3.83;;;2.37;;
10450;SDS011;5273;51.290;6.918;2023-03-14T10:48:13;2.60;;;2.20;;
10450;SDS011;5273;51.290;6.918;2023-03-14T10:50:49;2.90;;;2.10;;
10450;SDS011;5273;51.290;6.918;2023-03-14T10:53:21;2.63;;;2.13;;
10450;SDS011;5273;51.290;6.918;2023-03-14T10:55:49;2.30;;;2.10;;
10450;SDS011;5273;51.290;6.918;2023-03-14T10:58:26;1.50;;;1.40;;
10450;SDS011;5273;51.290;6.918;2023-03-14T11:01:02;2.10;;;1.90;;
10450;SDS011;5273;51.290;6.918;2023-03-14T11:03:40;2.07;;;1.87;;
10450;SDS011;5273;51.290;6.918;2023-03-14T11:06:11;2.70;;;2.03;;
10450;SDS011;5273;51.290;6.918;2023-03-14T11:08:45;2.63;;;1.83;;
10450;SDS011;5273;51.290;6.918;2023-03-14T11:11:18;3.77;;;1.50;;
10450;SDS011;5273;51.290;6.918;2023-03-14T11:13:52;2.87;;;1.20;;
10450;SDS011;5273;51.290;6.918;2023-03-14T11:16:28;1.80;;;0.93;;
10450;SDS011;5273;51.290;6.918;2023-03-14T11:19:03;2.37;;;1.10;;
10450;SDS011;5273;51.290;6.918;2023-03-14T11:21:45;2.77;;;1.57;;
10450;SDS011;5273;51.290;6.918;2023-03-14T11:24:21;2.87;;;0.90;;
10450;SDS011;5273;51.290;6.918;2023-03-14T11:27:09;2.90;;;1.30;;
10450;SDS011;5273;51.290;6.918;2023-03-14T11:29:45;2.70;;;1.20;;
10450;SDS011;5273;51.290;6.918;2023-03-14T11:32:24;1.07;;;1.07;;
10450;SDS011;5273;51.290;6.918;2023-03-14T11:35:00;2.87;;;1.33;;
10450;SDS011;5273;51.290;6.918;2023-03-14T11:37:32;1.70;;;1.30;;
10450;SDS011;5273;51.290;6.918;2023-03-14T11:40:04;3.40;;;1.77;;
10450;SDS011;5273;51.290;6.918;2023-03-14T11:42:40;3.33;;;2.13;;
10450;SDS011;5273;51.290;6.918;2023-03-14T11:45:12;2.70;;;2.03;;
10450;SDS011;5273;51.290;6.918;2023-03-14T11:47:44;4.00;;;1.90;;
10450;SDS011;5273;51.290;6.918;2023-03-14T11:50:13;2.30;;;1.47;;
10450;SDS011;5273;51.290;6.918;2023-03-14T11:52:44;1.87;;;1.33;;
10450;SDS011;5273;51.290;6.918;2023-03-14T11:55:17;5.87;;;2.17;;
10450;SDS011;5273;51.290;6.918;2023-03-14T11:57:48;3.57;;;2.10;;
10450;SDS011;5273;51.290;6.918;2023-03-14T12:00:18;2.27;;;2.03;;
10450;SDS011;5273;51.290;6.918;2023-03-14T12:02:48;5.80;;;1.40;;
10450;SDS011;5273;51.290;6.918;2023-03-14T12:05:29;2.20;;;1.50;;
10450;SDS011;5273;51.290;6.918;2023-03-14T12:11:06;2.53;;;1.30;;
10450;SDS011;5273;51.290;6.918;2023-03-14T12:13:39;3.93;;;1.67;;
10450;SDS011;5273;51.290;6.918;2023-03-14T12:16:10;4.50;;;1.63;;
10450;SDS011;5273;51.290;6.918;2023-03-14T12:22:07;4.27;;;2.30;;
10450;SDS011;5273;51.290;6.918;2023-03-14T12:24:44;2.93;;;1.83;;
10450;SDS011;5273;51.290;6.918;2023-03-14T12:30:17;2.93;;;1.70;;
10450;SDS011;5273;51.290;6.918;2023-03-14T12:39:15;1.83;;;1.30;;
10450;SDS011;5273;51.290;6.918;2023-03-14T12:41:51;3.50;;;1.67;;
10450;SDS011;5273;51.290;6.918;2023-03-14T12:44:43;4.13;;;2.00;;
10450;SDS011;5273;51.290;6.918;2023-03-14T12:50:15;4.20;;;1.60;;
10450;SDS011;5273;51.290;6.918;2023-03-14T12:55:50;5.77;;;1.60;;
10450;SDS011;5273;51.290;6.918;2023-03-14T12:58:24;4.37;;;1.70;;
10450;SDS011;5273;51.290;6.918;2023-03-14T13:00:59;6.83;;;2.20;;
10450;SDS011;5273;51.290;6.918;2023-03-14T13:03:37;4.57;;;2.03;;
10450;SDS011;5273;51.290;6.918;2023-03-14T13:06:08;3.67;;;1.60;;
10450;SDS011;5273;51.290;6.918;2023-03-14T13:08:37;5.17;;;2.13;;
10450;SDS011;5273;51.290;6.918;2023-03-14T13:11:08;7.17;;;2.23;;
10450;SDS011;5273;51.290;6.918;2023-03-14T13:13:40;4.07;;;1.93;;
10450;SDS011;5273;51.290;6.918;2023-03-14T13:16:12;7.40;;;2.07;;
10450;SDS011;5273;51.290;6.918;2023-03-14T13:18:43;7.80;;;2.00;;
10450;SDS011;5273;51.290;6.918;2023-03-14T13:21:12;7.17;;;1.90;;
10450;SDS011;5273;51.290;6.918;2023-03-14T13:23:57;6.70;;;1.80;;
10450;SDS011;5273;51.290;6.918;2023-03-14T13:26:31;10.30;;;2.00;;
10450;SDS011;5273;51.290;6.918;2023-03-14T13:29:08;7.53;;;2.90;;
10450;SDS011;5273;51.290;6.918;2023-03-14T13:31:36;6.13;;;2.00;;
10450;SDS011;5273;51.290;6.918;2023-03-14T13:34:07;4.13;;;1.70;;
10450;SDS011;5273;51.290;6.918;2023-03-14T13:36:36;10.17;;;1.97;;
10450;SDS011;5273;51.290;6.918;2023-03-14T13:39:04;11.83;;;1.90;;
10450;SDS011;5273;51.290;6.918;2023-03-14T13:41:37;6.80;;;1.90;;
10450;SDS011;5273;51.290;6.918;2023-03-14T13:44:05;16.63;;;2.83;;
10450;SDS011;5273;51.290;6.918;2023-03-14T13:46:34;16.27;;;2.87;;
10450;SDS011;5273;51.290;6.918;2023-03-14T13:49:03;8.63;;;2.17;;
10450;SDS011;5273;51.290;6.918;2023-03-14T13:51:32;7.43;;;2.43;;
10450;SDS011;5273;51.290;6.918;2023-03-14T13:53:59;13.13;;;2.67;;
10450;SDS011;5273;51.290;6.918;2023-03-14T13:56:28;15.00;;;2.80;;
10450;SDS011;5273;51.290;6.918;2023-03-14T13:58:57;13.57;;;3.00;;
10450;SDS011;5273;51.290;6.918;2023-03-14T14:01:25;14.53;;;3.07;;
10450;SDS011;5273;51.290;6.918;2023-03-14T14:03:54;11.17;;;3.43;;
10450;SDS011;5273;51.290;6.918;2023-03-14T14:06:26;11.80;;;2.97;;
10450;SDS011;5273;51.290;6.918;2023-03-14T14:08:58;14.50;;;3.13;;
10450;SDS011;5273;51.290;6.918;2023-03-14T14:11:33;11.80;;;2.80;;
10450;SDS011;5273;51.290;6.918;2023-03-14T14:14:04;15.03;;;3.20;;
10450;SDS011;5273;51.290;6.918;2023-03-14T14:16:36;14.47;;;2.80;;
10450;SDS011;5273;51.290;6.918;2023-03-14T14:19:03;13.50;;;2.93;;
10450;SDS011;5273;51.290;6.918;2023-03-14T14:21:30;13.73;;;3.03;;
10450;SDS011;5273;51.290;6.918;2023-03-14T14:23:59;8.77;;;2.23;;
10450;SDS011;5273;51.290;6.918;2023-03-14T14:26:26;12.93;;;3.30;;
10450;SDS011;5273;51.290;6.918;2023-03-14T14:29:00;18.37;;;3.23;;
10450;SDS011;5273;51.290;6.918;2023-03-14T14:31:29;9.17;;;3.17;;
10450;SDS011;5273;51.290;6.918;2023-03-14T14:33:56;15.37;;;3.23;;
10450;SDS011;5273;51.290;6.918;2023-03-14T14:36:25;10.00;;;2.70;;
10450;SDS011;5273;51.290;6.918;2023-03-14T14:38:57;9.13;;;2.40;;
10450;SDS011;5273;51.290;6.918;2023-03-14T14:41:27;11.40;;;3.03;;
10450;SDS011;5273;51.290;6.918;2023-03-14T14:43:56;6.00;;;2.40;;
10450;SDS011;5273;51.290;6.918;2023-03-14T14:46:25;6.67;;;2.10;;
10450;SDS011;5273;51.290;6.918;2023-03-14T14:48:54;6.87;;;2.53;;
10450;SDS011;5273;51.290;6.918;2023-03-14T14:51:23;8.47;;;1.90;;
10450;SDS011;5273;51.290;6.918;2023-03-14T14:57:01;9.03;;;2.37;;
10450;SDS011;5273;51.290;6.918;2023-03-14T14:59:29;7.10;;;1.63;;
10450;SDS011;5273;51.290;6.918;2023-03-14T15:01:58;11.37;;;1.70;;
10450;SDS011;5273;51.290;6.918;2023-03-14T15:04:27;8.73;;;1.60;;
10450;SDS011;5273;51.290;6.918;2023-03-14T15:06:56;6.27;;;1.97;;
10450;SDS011;5273;51.290;6.918;2023-03-14T15:09:25;9.57;;;2.03;;
10450;SDS011;5273;51.290;6.918;2023-03-14T15:11:52;7.63;;;1.80;;
10450;SDS011;5273;51.290;6.918;2023-03-14T15:14:19;7.00;;;2.03;;
10450;SDS011;5273;51.290;6.918;2023-03-14T15:16:46;7.60;;;1.63;;
10450;SDS011;5273;51.290;6.918;2023-03-14T15:19:16;5.70;;;1.83;;
10450;SDS011;5273;51.290;6.918;2023-03-14T15:21:46;5.13;;;1.60;;
10450;SDS011;5273;51.290;6.918;2023-03-14T15:24:13;7.43;;;2.37;;
10450;SDS011;5273;51.290;6.918;2023-03-14T15:26:41;5.73;;;1.47;;
10450;SDS011;5273;51.290;6.918;2023-03-14T15:29:09;7.30;;;1.67;;
10450;SDS011;5273;51.290;6.918;2023-03-14T15:31:37;7.77;;;1.67;;
10450;SDS011;5273;51.290;6.918;2023-03-14T15:34:04;7.37;;;1.70;;
10450;SDS011;5273;51.290;6.918;2023-03-14T15:36:32;7.17;;;1.80;;